createdAt,value
2017-12-12T00:00:28.359Z,0.50
2017-12-12T00:02:56.741Z,1.90
2017-12-12T00:05:25.135Z,1.83
2017-12-12T00:07:53.456Z,0.83
2017-12-12T00:10:21.857Z,0.50
2017-12-12T00:12:50.225Z,1.27
2017-12-12T00:15:18.653Z,1.30
2017-12-12T00:17:47.012Z,0.70
2017-12-12T00:20:15.336Z,0.60
2017-12-12T00:22:43.760Z,0.40
2017-12-12T00:25:12.111Z,0.50
2017-12-12T00:27:40.480Z,0.50
2017-12-12T00:30:08.826Z,0.80
2017-12-12T00:32:37.152Z,0.63
2017-12-12T00:35:05.485Z,0.50
2017-12-12T00:37:33.806Z,0.70
2017-12-12T00:40:02.157Z,0.60
2017-12-12T00:42:30.510Z,0.70
2017-12-12T00:44:58.876Z,1.00
2017-12-12T00:47:27.270Z,0.57
2017-12-12T00:49:55.580Z,1.47
2017-12-12T00:52:23.978Z,1.87
2017-12-12T00:54:52.326Z,1.03
2017-12-12T00:57:20.682Z,0.80
2017-12-12T00:59:49.049Z,1.20
2017-12-12T01:02:17.443Z,1.60
2017-12-12T01:04:45.863Z,0.93
2017-12-12T01:07:14.222Z,0.70
2017-12-12T01:09:42.540Z,0.53
2017-12-12T01:12:10.871Z,0.63
2017-12-12T01:14:39.286Z,0.87
2017-12-12T01:17:07.739Z,0.60
2017-12-12T01:19:36.085Z,0.90
2017-12-12T01:22:04.434Z,0.87
2017-12-12T01:24:32.776Z,0.80
2017-12-12T01:27:01.118Z,1.93
2017-12-12T01:29:29.487Z,2.37
2017-12-12T01:31:57.801Z,3.40
2017-12-12T01:34:26.192Z,1.17
2017-12-12T01:36:54.563Z,1.70
2017-12-12T01:39:22.876Z,1.17
2017-12-12T01:41:51.250Z,0.67
2017-12-12T01:44:19.626Z,1.13
2017-12-12T01:46:47.965Z,0.60
2017-12-12T01:49:16.310Z,0.60
2017-12-12T01:51:44.688Z,0.63
2017-12-12T01:54:13.045Z,0.60
2017-12-12T01:56:41.397Z,0.53
2017-12-12T01:59:09.858Z,0.50
2017-12-12T02:01:38.213Z,0.50
2017-12-12T02:04:06.677Z,0.60
2017-12-12T02:06:35.016Z,0.40
2017-12-12T02:09:03.377Z,0.50
2017-12-12T02:11:31.671Z,0.50
2017-12-12T02:13:59.999Z,0.50
2017-12-12T02:16:28.405Z,0.50
2017-12-12T02:18:56.704Z,0.57
2017-12-12T02:21:25.083Z,0.63
2017-12-12T02:23:53.426Z,0.50
2017-12-12T02:26:21.797Z,1.23
2017-12-12T02:28:50.122Z,0.50
2017-12-12T02:31:18.455Z,0.50
2017-12-12T02:33:46.904Z,0.50
2017-12-12T02:36:15.216Z,0.53
2017-12-12T02:38:43.571Z,0.50
2017-12-12T02:41:11.979Z,0.53
2017-12-12T02:43:40.320Z,0.60
2017-12-12T02:46:08.679Z,0.60
2017-12-12T02:48:37.031Z,0.70
2017-12-12T02:51:05.405Z,1.17
2017-12-12T02:53:33.752Z,0.70
2017-12-12T02:56:02.081Z,0.80
2017-12-12T02:58:30.417Z,0.70
2017-12-12T03:00:58.749Z,3.70
2017-12-12T03:03:27.164Z,0.80
2017-12-12T03:05:55.487Z,0.60
2017-12-12T03:08:23.871Z,0.63
2017-12-12T03:10:52.181Z,0.70
2017-12-12T03:13:20.556Z,0.40
2017-12-12T03:15:48.953Z,0.47
2017-12-12T03:18:18.277Z,0.60
2017-12-12T03:20:46.644Z,0.70
2017-12-12T03:23:15.041Z,0.70
2017-12-12T03:25:43.374Z,0.60
2017-12-12T03:28:11.728Z,0.50
2017-12-12T03:30:40.051Z,0.60
2017-12-12T03:33:08.412Z,0.60
2017-12-12T03:35:36.873Z,0.50
2017-12-12T03:38:05.260Z,0.60
2017-12-12T03:40:33.569Z,0.60
2017-12-12T03:43:01.991Z,0.60
2017-12-12T03:45:30.337Z,0.53
2017-12-12T03:47:58.689Z,0.50
2017-12-12T03:50:27.126Z,0.60
2017-12-12T03:52:55.485Z,0.67
2017-12-12T03:55:23.877Z,0.73
2017-12-12T03:57:52.231Z,0.50
2017-12-12T04:00:20.605Z,0.60
2017-12-12T04:02:48.935Z,0.60
2017-12-12T04:05:17.291Z,0.50
2017-12-12T04:07:45.653Z,0.50
2017-12-12T04:10:13.980Z,0.70
2017-12-12T04:12:42.384Z,0.50
2017-12-12T04:15:10.730Z,0.60
2017-12-12T04:17:39.194Z,0.87
2017-12-12T04:20:07.533Z,2.13
2017-12-12T04:22:35.906Z,1.00
2017-12-12T04:25:04.271Z,1.40
2017-12-12T04:27:32.707Z,1.80
2017-12-12T04:30:01.221Z,1.03
2017-12-12T04:32:29.591Z,1.10
2017-12-12T04:34:57.914Z,1.40
2017-12-12T04:37:26.268Z,0.93
2017-12-12T04:39:54.581Z,0.80
2017-12-12T04:42:22.927Z,0.60
2017-12-12T04:44:51.243Z,0.83
2017-12-12T04:47:19.631Z,0.60
2017-12-12T04:49:48.318Z,0.93
2017-12-12T04:52:16.658Z,0.83
2017-12-12T04:54:45.042Z,0.87
2017-12-12T04:57:13.372Z,0.90
2017-12-12T04:59:41.794Z,0.90
2017-12-12T05:02:10.186Z,0.80
2017-12-12T05:04:38.525Z,0.93
2017-12-12T05:07:06.933Z,1.07
2017-12-12T05:09:35.302Z,1.10
2017-12-12T05:12:03.847Z,0.93
2017-12-12T05:14:32.705Z,1.20
2017-12-12T05:17:01.046Z,1.03
2017-12-12T05:19:29.438Z,1.10
2017-12-12T05:21:57.825Z,1.10
2017-12-12T05:24:26.253Z,1.27
2017-12-12T05:26:54.699Z,1.53
2017-12-12T05:29:23.039Z,1.83
2017-12-12T05:31:51.379Z,1.50
2017-12-12T05:34:19.788Z,1.70
2017-12-12T05:36:48.244Z,1.17
2017-12-12T05:39:16.614Z,1.40
2017-12-12T05:41:45.291Z,1.30
2017-12-12T05:44:13.665Z,1.00
2017-12-12T05:46:42.010Z,0.90
2017-12-12T05:49:10.364Z,1.20
2017-12-12T05:51:38.860Z,0.90
2017-12-12T05:54:07.228Z,1.40
2017-12-12T05:56:35.601Z,0.93
2017-12-12T05:59:04.010Z,1.07
2017-12-12T06:01:32.385Z,1.30
2017-12-12T06:04:00.835Z,1.00
2017-12-12T06:06:29.195Z,1.00
2017-12-12T06:08:57.563Z,0.80
2017-12-12T06:14:00.606Z,1.00
2017-12-12T06:16:28.971Z,1.00
2017-12-12T06:18:57.441Z,0.80
2017-12-12T06:21:27.604Z,0.90
2017-12-12T06:23:56.039Z,0.90
2017-12-12T06:26:24.843Z,1.10
2017-12-12T06:28:53.411Z,1.30
2017-12-12T06:31:22.346Z,1.00
2017-12-12T06:33:51.006Z,0.97
2017-12-12T06:36:19.664Z,1.17
2017-12-12T06:38:48.654Z,1.03
2017-12-12T06:41:17.000Z,1.63
2017-12-12T06:43:45.444Z,1.37
2017-12-12T06:46:13.910Z,1.40
2017-12-12T06:48:42.826Z,1.33
2017-12-12T06:51:11.168Z,1.63
2017-12-12T06:53:39.629Z,1.23
2017-12-12T07:01:19.908Z,1.87
2017-12-12T07:03:48.918Z,1.90
2017-12-12T07:06:17.402Z,1.73
2017-12-12T07:08:46.218Z,1.70
2017-12-12T07:11:14.635Z,1.97
2017-12-12T07:13:43.061Z,2.10
2017-12-12T07:16:11.485Z,2.23
2017-12-12T07:18:40.096Z,2.03
2017-12-12T07:21:08.558Z,1.93
2017-12-12T07:23:37.443Z,1.80
2017-12-12T07:26:05.992Z,1.83
2017-12-12T07:28:38.090Z,1.80
2017-12-12T07:31:07.073Z,2.50
2017-12-12T07:33:37.884Z,2.30
2017-12-12T07:36:06.530Z,2.53
2017-12-12T07:38:34.934Z,1.70
2017-12-12T07:41:03.351Z,1.60
2017-12-12T07:43:32.102Z,2.20
2017-12-12T07:46:00.641Z,2.30
2017-12-12T07:48:29.591Z,2.40
2017-12-12T07:50:58.049Z,1.83
2017-12-12T07:53:26.633Z,2.27
2017-12-12T07:55:54.997Z,2.40
2017-12-12T07:58:25.553Z,1.80
2017-12-12T08:00:54.310Z,2.77
2017-12-12T08:03:23.707Z,2.10
2017-12-12T08:10:57.705Z,2.37
2017-12-12T08:13:26.269Z,1.97
2017-12-12T08:15:55.682Z,2.23
2017-12-12T08:18:24.391Z,2.90
2017-12-12T08:20:52.852Z,2.70
2017-12-12T08:23:22.015Z,2.70
2017-12-12T08:25:50.756Z,2.40
2017-12-12T08:34:03.668Z,2.10
2017-12-12T08:36:32.476Z,2.57
2017-12-12T08:39:01.146Z,2.47
2017-12-12T08:41:29.720Z,2.50
2017-12-12T08:43:58.262Z,2.67
2017-12-12T08:48:59.526Z,1.93
2017-12-12T08:51:28.394Z,2.10
2017-12-12T08:53:57.008Z,2.30
2017-12-12T09:01:30.923Z,2.13
2017-12-12T09:03:59.520Z,2.03
2017-12-12T09:09:05.896Z,2.33
2017-12-12T09:14:10.369Z,3.10
2017-12-12T09:16:40.085Z,1.73
2017-12-12T09:29:43.576Z,2.73
2017-12-12T09:32:16.158Z,2.03
2017-12-12T09:34:44.742Z,2.40
2017-12-12T09:39:46.136Z,2.43
2017-12-12T09:52:42.463Z,2.27
2017-12-12T09:55:14.769Z,2.50
2017-12-12T09:57:44.036Z,2.47
2017-12-12T10:00:13.678Z,1.70
2017-12-12T10:05:14.921Z,2.20
2017-12-12T10:10:24.211Z,2.20
2017-12-12T10:12:53.875Z,2.27
2017-12-12T10:15:29.569Z,2.10
2017-12-12T10:18:00.912Z,1.60
2017-12-12T10:23:02.285Z,1.70
2017-12-12T10:25:34.334Z,2.50
2017-12-12T10:30:37.701Z,2.70
2017-12-12T10:35:40.763Z,2.00
2017-12-12T10:38:09.921Z,2.43
2017-12-12T10:40:43.199Z,2.07
2017-12-12T10:43:13.512Z,1.90
2017-12-12T10:45:42.075Z,2.30
2017-12-12T10:53:28.424Z,2.00
2017-12-12T10:55:57.538Z,2.93
2017-12-12T10:58:26.782Z,2.53
2017-12-12T11:00:55.329Z,2.33
2017-12-12T11:03:25.665Z,2.13
2017-12-12T11:11:03.436Z,2.43
2017-12-12T11:13:32.709Z,2.67
2017-12-12T11:16:01.386Z,1.93
2017-12-12T11:18:31.024Z,2.60
2017-12-12T11:23:37.861Z,2.50
2017-12-12T11:26:07.166Z,2.97
2017-12-12T11:28:36.218Z,2.10
2017-12-12T11:33:41.438Z,2.00
2017-12-12T11:38:44.585Z,1.90
2017-12-12T11:41:16.057Z,2.50
2017-12-12T11:43:45.784Z,3.27
2017-12-12T11:46:14.555Z,2.77
2017-12-12T11:48:45.030Z,2.23
2017-12-12T11:51:21.106Z,2.30
2017-12-12T11:59:05.216Z,2.47
2017-12-12T12:01:33.765Z,3.40
2017-12-12T12:06:39.838Z,2.83
2017-12-12T12:09:12.273Z,2.10
2017-12-12T12:11:41.235Z,1.90
2017-12-12T12:25:14.266Z,1.57
2017-12-12T12:30:22.787Z,1.77
2017-12-12T12:45:54.560Z,2.90
2017-12-12T12:59:48.837Z,3.27
2017-12-12T13:05:11.078Z,2.53
2017-12-12T13:10:24.642Z,3.40
2017-12-12T13:12:54.063Z,2.90
2017-12-12T13:17:58.595Z,4.20
2017-12-12T13:38:38.332Z,4.20
2017-12-12T13:41:07.652Z,4.07
2017-12-12T13:46:11.378Z,3.50
2017-12-12T13:48:41.708Z,3.63
2017-12-12T13:51:10.520Z,4.20
2017-12-12T13:53:39.024Z,3.20
2017-12-12T13:56:07.836Z,3.20
2017-12-12T13:58:38.514Z,3.87
2017-12-12T14:01:07.934Z,3.33
2017-12-12T14:21:46.641Z,4.27
2017-12-12T14:26:53.355Z,3.57
2017-12-12T14:32:06.732Z,4.30
2017-12-12T14:37:16.269Z,3.67
2017-12-12T14:55:17.701Z,4.53
2017-12-12T15:05:47.011Z,4.57
2017-12-12T15:20:54.631Z,6.60
2017-12-12T15:29:04.981Z,5.50
2017-12-12T15:31:35.643Z,4.43
2017-12-12T15:34:08.225Z,4.50
2017-12-12T15:45:02.889Z,6.73
2017-12-12T15:55:32.878Z,4.07
2017-12-12T16:00:35.232Z,3.67
2017-12-12T16:03:04.222Z,4.60
2017-12-12T16:10:54.299Z,5.07
2017-12-12T16:19:30.574Z,4.30
2017-12-12T16:24:34.702Z,3.47
2017-12-12T16:27:04.557Z,4.20
2017-12-12T16:32:22.345Z,3.23
2017-12-12T16:34:51.417Z,3.87
2017-12-12T16:37:20.108Z,3.40
2017-12-12T16:44:56.593Z,3.23
2017-12-12T16:47:25.296Z,2.90
2017-12-12T16:49:57.981Z,4.10
2017-12-12T16:58:17.107Z,3.50
2017-12-12T17:11:01.323Z,4.13
2017-12-12T17:16:16.757Z,2.90
2017-12-12T17:18:45.514Z,2.90
2017-12-12T17:32:14.321Z,3.37
2017-12-12T17:39:56.342Z,4.00
2017-12-12T17:44:57.356Z,3.70
2017-12-12T17:53:10.096Z,3.27
2017-12-12T17:58:19.648Z,4.10
2017-12-12T18:00:48.787Z,4.43
2017-12-12T18:05:55.078Z,3.70
2017-12-12T18:08:23.947Z,4.10
2017-12-12T18:21:04.852Z,4.50
2017-12-12T18:28:44.793Z,4.77
2017-12-12T18:38:57.538Z,4.87
2017-12-12T18:41:26.089Z,4.40
2017-12-12T18:43:54.515Z,4.60
2017-12-12T18:46:23.100Z,5.00
2017-12-12T18:48:51.636Z,4.60
2017-12-12T18:53:57.042Z,4.83
2017-12-12T18:58:59.760Z,3.20
2017-12-12T19:01:28.263Z,4.83
2017-12-12T19:03:58.462Z,3.43
2017-12-12T19:09:02.288Z,4.77
2017-12-12T19:11:30.830Z,4.57
2017-12-12T19:13:59.352Z,4.20
2017-12-12T19:19:00.208Z,4.20
2017-12-12T19:21:29.403Z,4.10
2017-12-12T19:26:31.067Z,3.93
2017-12-12T19:31:41.551Z,4.00
2017-12-12T19:34:11.582Z,4.97
2017-12-12T19:36:40.442Z,4.00
2017-12-12T19:39:09.034Z,4.13
2017-12-12T19:41:39.053Z,4.53
2017-12-12T19:44:09.178Z,4.40
2017-12-12T19:46:45.030Z,5.63
2017-12-12T19:51:58.190Z,4.70
2017-12-12T19:54:26.771Z,4.30
2017-12-12T19:56:55.197Z,3.70
2017-12-12T19:59:23.810Z,4.93
2017-12-12T20:04:25.292Z,5.27
2017-12-12T20:06:53.661Z,5.90
2017-12-12T20:09:22.037Z,4.93
2017-12-12T20:14:23.233Z,5.90
2017-12-12T20:16:54.639Z,5.10
2017-12-12T20:19:27.797Z,4.73
2017-12-12T20:24:28.708Z,5.30
2017-12-12T20:26:57.329Z,6.03
2017-12-12T20:29:28.785Z,5.83
2017-12-12T20:31:57.165Z,6.17
2017-12-12T20:34:25.777Z,6.20
2017-12-12T20:36:54.182Z,5.83
2017-12-12T20:41:55.339Z,6.10
2017-12-12T20:44:23.805Z,7.33
2017-12-12T20:46:52.158Z,6.90
2017-12-12T20:49:20.530Z,7.03
2017-12-12T20:52:02.784Z,8.33
2017-12-12T20:54:32.770Z,7.70
2017-12-12T20:57:01.122Z,7.70
2017-12-12T20:59:29.614Z,7.60
2017-12-12T21:01:59.860Z,6.97
2017-12-12T21:04:28.269Z,7.13
2017-12-12T21:06:56.664Z,7.23
2017-12-12T21:09:25.122Z,6.40
2017-12-12T21:11:53.517Z,6.57
2017-12-12T21:14:21.875Z,8.30
2017-12-12T21:16:50.303Z,7.50
2017-12-12T21:19:19.047Z,7.83
2017-12-12T21:21:48.786Z,7.40
2017-12-12T21:24:17.251Z,8.37
2017-12-12T21:26:45.781Z,9.57
2017-12-12T21:29:15.259Z,7.10
2017-12-12T21:31:44.087Z,7.43
2017-12-12T21:34:12.677Z,6.77
2017-12-12T21:36:41.504Z,7.20
2017-12-12T21:39:09.854Z,7.17
2017-12-12T21:41:38.997Z,10.03
2017-12-12T21:44:07.615Z,7.53
2017-12-12T21:46:36.324Z,7.70
2017-12-12T21:49:04.736Z,6.67
2017-12-12T21:51:33.215Z,7.30
2017-12-12T21:54:01.665Z,7.87
2017-12-12T21:56:29.998Z,8.60
2017-12-12T21:58:58.408Z,8.60
2017-12-12T22:01:26.749Z,8.73
2017-12-12T22:03:55.515Z,7.33
2017-12-12T22:06:23.859Z,7.70
2017-12-12T22:08:52.274Z,9.03
2017-12-12T22:11:20.633Z,8.40
2017-12-12T22:13:49.048Z,7.53
2017-12-12T22:16:17.392Z,7.87
2017-12-12T22:18:45.762Z,7.73
2017-12-12T22:21:14.332Z,8.40
2017-12-12T22:23:42.640Z,8.20
2017-12-12T22:26:11.013Z,7.90
2017-12-12T22:28:39.391Z,7.27
2017-12-12T22:31:07.810Z,8.20
2017-12-12T22:33:36.156Z,7.30
2017-12-12T22:36:04.516Z,7.60
2017-12-12T22:38:32.869Z,9.10
2017-12-12T22:41:01.240Z,7.33
2017-12-12T22:43:29.569Z,5.90
2017-12-12T22:45:57.924Z,7.70
2017-12-12T22:48:26.463Z,7.00
2017-12-12T22:50:54.827Z,6.57
2017-12-12T22:53:23.153Z,7.70
2017-12-12T22:55:51.512Z,6.40
2017-12-12T22:58:19.830Z,5.50
2017-12-12T23:00:50.072Z,7.00
2017-12-12T23:03:18.552Z,5.40
2017-12-12T23:05:46.916Z,5.70
2017-12-12T23:08:15.254Z,5.97
2017-12-12T23:10:43.791Z,5.77
2017-12-12T23:13:12.220Z,5.10
2017-12-12T23:15:42.120Z,6.63
2017-12-12T23:18:10.476Z,5.30
2017-12-12T23:20:39.428Z,6.17
2017-12-12T23:23:07.758Z,5.70
2017-12-12T23:25:36.098Z,4.70
2017-12-12T23:28:04.394Z,4.60
2017-12-12T23:30:32.743Z,5.87
2017-12-12T23:33:01.075Z,6.17
2017-12-12T23:35:29.396Z,4.73
2017-12-12T23:37:58.722Z,7.83
2017-12-12T23:40:27.059Z,5.50
2017-12-12T23:42:55.424Z,4.20
2017-12-12T23:45:24.676Z,5.53
2017-12-12T23:47:53.095Z,3.87
2017-12-12T23:50:21.435Z,5.53
2017-12-12T23:52:49.783Z,7.60
2017-12-12T23:55:18.145Z,5.23
2017-12-12T23:57:46.471Z,4.97
